Bw Aries — 2HSO5 — position and weather

sailwx.info

Track history (hours):
 
Tides and Currents Weather Stations Pressure Air Temp Water Temp Dewpoint Dewpoint Depression Visibility Wind Speed Wind Dir Waves Ship Positions

Bw Aries

Last reported at 2018-Aug-21 03:02 UTC. Time now 2018-Aug-21 04:19 UTC.
Position N 09°15' W 079°55'.

Length 225 m; draft 11.5 m.

Type: Tanker. MMSI: 235106302.

Date/timePositionNaut miles runAvg speedWind from/ knotsBaromVisibWave heightAir tempDewpointWater temp
2018-Aug-21 03:02N 09°15' W 079°55'1 5.7
2018-Aug-21 02:50N 09°16' W 079°55'0 1.2
2018-Aug-21 02:27N 09°16' W 079°55'0 0.4
2018-Aug-21 01:54N 09°16' W 079°55'0 0.6
2018-Aug-21 01:30N 09°17' W 079°55'1 0.7
2018-Aug-21 00:37N 09°17' W 079°55'0 2.5
2018-Aug-21 00:27N 09°18' W 079°55'2 4.2
2018-Aug-21 00:03N 09°19' W 079°55'0 6.1
2018-Aug-21 00:00N 09°20' W 079°55'3 6.0
2018-Aug-20 23:30N 09°23' W 079°55'0 0.9
2018-Aug-20 23:03N 09°22' W 079°56'0 0.3
2018-Aug-20 23:00N 09°22' W 079°55'0 0.1
2018-Aug-20 22:29N 09°22' W 079°55'0 0.0
2018-Aug-20 21:59N 09°22' W 079°55'0 0.0
2018-Aug-20 21:29N 09°22' W 079°55'0 0.0
2018-Aug-20 21:02N 09°22' W 079°55'0 0.0
2018-Aug-20 20:59N 09°22' W 079°55'0 0.0
2018-Aug-20 20:29N 09°22' W 079°55'0 0.0
2018-Aug-20 20:02N 09°22' W 079°55'0 0.2
2018-Aug-20 19:59N 09°22' W 079°55'0 0.0
2018-Aug-20 19:29N 09°22' W 079°55'0 0.0
2018-Aug-20 19:02N 09°22' W 079°55'0 0.1
2018-Aug-20 18:59N 09°22' W 079°55'0 0.0
2018-Aug-20 18:23N 09°22' W 079°55'0 0.0
2018-Aug-20 17:41N 09°22' W 079°55'0 0.4
2018-Aug-20 17:30N 09°22' W 079°55'1 2.4
2018-Aug-20 17:03N 09°23' W 079°55'0 3.6
2018-Aug-20 17:00N 09°24' W 079°55'3 6.4
2018-Aug-20 16:30N 09°27' W 079°55'613.1
2018-Aug-20 16:03N 09°32' W 079°53'113.7
2018-Aug-20 16:00N 09°33' W 079°53'  
2018-Aug-16 07:20N 29°22' W 093°39'410.0
2018-Aug-16 06:56N 29°25' W 093°41'0 0.8
2018-Aug-16 06:30N 29°25' W 093°41'5 9.3
2018-Aug-16 05:55N 29°31' W 093°42'512.8
2018-Aug-16 05:30N 29°34' W 093°46'611.8
2018-Aug-16 05:00N 29°40' W 093°50'510.2
2018-Aug-16 04:30N 29°44' W 093°52'4 8.4
2018-Aug-16 04:00N 29°46' W 093°56'4 8.2
2018-Aug-16 03:30N 29°51' W 093°57'3 6.2
2018-Aug-16 03:00N 29°53' W 093°55'3 6.8
2018-Aug-16 02:30N 29°56' W 093°53'3 6.2
2018-Aug-16 02:00N 29°59' W 093°52'4 6.9
2018-Aug-16 01:29N 29°59' W 093°56'3 5.2
2018-Aug-16 00:59N 30°01' W 093°59'1 1.6
2018-Aug-16 00:30N 30°01' W 093°60'  
2018-Aug-13 12:12N 30°01' W 093°60'0 0.0
2018-Aug-13 12:00N 30°01' W 093°60'0 0.1
2018-Aug-13 11:29N 30°01' W 093°60'2 4.3
2018-Aug-13 11:00N 30°00' W 093°57'3 6.4
2018-Aug-13 10:31N 29°59' W 093°54'3 5.9
2018-Aug-13 10:00N 29°57' W 093°52'3 5.8
2018-Aug-13 09:30N 29°55' W 093°54'4 7.8
2018-Aug-13 09:00N 29°51' W 093°56'3 6.8
2018-Aug-13 08:30N 29°48' W 093°57'4 8.6
2018-Aug-13 08:00N 29°45' W 093°53'510.3
2018-Aug-13 07:30N 29°41' W 093°50'713.6
2018-Aug-13 07:00N 29°35' W 093°47'814.7
2018-Aug-13 06:28N 29°29' W 093°40'510.3
2018-Aug-13 06:00N 29°25' W 093°41'1 1.5
2018-Aug-13 05:13N 29°24' W 093°42'0 0.0
2018-Aug-13 04:55N 29°24' W 093°42'0 0.0
2018-Aug-13 04:25N 29°24' W 093°42'0 0.0
2018-Aug-13 03:31N 29°24' W 093°42'0 0.1
2018-Aug-13 03:25N 29°24' W 093°42'0 0.0
2018-Aug-13 02:55N 29°24' W 093°42'0 0.0
2018-Aug-13 02:13N 29°24' W 093°42'0 0.1
2018-Aug-13 01:55N 29°24' W 093°42'0 0.0
2018-Aug-13 00:19N 29°24' W 093°42'0 0.0
2018-Aug-12 22:43N 29°24' W 093°42'0 0.0
2018-Aug-12 20:55N 29°24' W 093°42'0 0.0
2018-Aug-12 19:01N 29°24' W 093°42'0 0.3
2018-Aug-12 18:55N 29°24' W 093°42'0 0.5
2018-Aug-12 18:31N 29°24' W 093°42'2 4.3
2018-Aug-12 18:00N 29°22' W 093°41'612.0
2018-Aug-12 17:30N 29°16' W 093°39'  
Track history (hours):
 
Tides and Currents Weather Stations Pressure Air Temp Water Temp Dewpoint Dewpoint Depression Visibility Wind Speed Wind Dir Waves Ship Positions

Bw Aries

Last reported at 2018-Aug-21 03:02 UTC. Time now 2018-Aug-21 04:19 UTC.
Position N 09°15' W 079°55'.

Length 225 m; draft 11.5 m.

Type: Tanker. MMSI: 235106302.

Date/timePositionNaut miles runAvg speedWind from/ knotsBaromVisibWave heightAir tempDewpointWater temp
2018-Aug-21 03:02N 09°15' W 079°55'1 5.7
2018-Aug-21 02:50N 09°16' W 079°55'0 1.2
2018-Aug-21 02:27N 09°16' W 079°55'0 0.4
2018-Aug-21 01:54N 09°16' W 079°55'0 0.6
2018-Aug-21 01:30N 09°17' W 079°55'1 0.7
2018-Aug-21 00:37N 09°17' W 079°55'0 2.5
2018-Aug-21 00:27N 09°18' W 079°55'2 4.2
2018-Aug-21 00:03N 09°19' W 079°55'0 6.1
2018-Aug-21 00:00N 09°20' W 079°55'3 6.0
2018-Aug-20 23:30N 09°23' W 079°55'0 0.9
2018-Aug-20 23:03N 09°22' W 079°56'0 0.3
2018-Aug-20 23:00N 09°22' W 079°55'0 0.1
2018-Aug-20 22:29N 09°22' W 079°55'0 0.0
2018-Aug-20 21:59N 09°22' W 079°55'0 0.0
2018-Aug-20 21:29N 09°22' W 079°55'0 0.0
2018-Aug-20 21:02N 09°22' W 079°55'0 0.0
2018-Aug-20 20:59N 09°22' W 079°55'0 0.0
2018-Aug-20 20:29N 09°22' W 079°55'0 0.0
2018-Aug-20 20:02N 09°22' W 079°55'0 0.2
2018-Aug-20 19:59N 09°22' W 079°55'0 0.0
2018-Aug-20 19:29N 09°22' W 079°55'0 0.0
2018-Aug-20 19:02N 09°22' W 079°55'0 0.1
2018-Aug-20 18:59N 09°22' W 079°55'0 0.0
2018-Aug-20 18:23N 09°22' W 079°55'0 0.0
2018-Aug-20 17:41N 09°22' W 079°55'0 0.4
2018-Aug-20 17:30N 09°22' W 079°55'1 2.4
2018-Aug-20 17:03N 09°23' W 079°55'0 3.6
2018-Aug-20 17:00N 09°24' W 079°55'3 6.4
2018-Aug-20 16:30N 09°27' W 079°55'613.1
2018-Aug-20 16:03N 09°32' W 079°53'113.7
2018-Aug-20 16:00N 09°33' W 079°53'  
2018-Aug-16 07:20N 29°22' W 093°39'410.0
2018-Aug-16 06:56N 29°25' W 093°41'0 0.8
2018-Aug-16 06:30N 29°25' W 093°41'5 9.3
2018-Aug-16 05:55N 29°31' W 093°42'512.8
2018-Aug-16 05:30N 29°34' W 093°46'611.8
2018-Aug-16 05:00N 29°40' W 093°50'510.2
2018-Aug-16 04:30N 29°44' W 093°52'4 8.4
2018-Aug-16 04:00N 29°46' W 093°56'4 8.2
2018-Aug-16 03:30N 29°51' W 093°57'3 6.2
2018-Aug-16 03:00N 29°53' W 093°55'3 6.8
2018-Aug-16 02:30N 29°56' W 093°53'3 6.2
2018-Aug-16 02:00N 29°59' W 093°52'4 6.9
2018-Aug-16 01:29N 29°59' W 093°56'3 5.2
2018-Aug-16 00:59N 30°01' W 093°59'1 1.6
2018-Aug-16 00:30N 30°01' W 093°60'  
2018-Aug-13 12:12N 30°01' W 093°60'0 0.0
2018-Aug-13 12:00N 30°01' W 093°60'0 0.1
2018-Aug-13 11:29N 30°01' W 093°60'2 4.3
2018-Aug-13 11:00N 30°00' W 093°57'3 6.4
2018-Aug-13 10:31N 29°59' W 093°54'3 5.9
2018-Aug-13 10:00N 29°57' W 093°52'3 5.8
2018-Aug-13 09:30N 29°55' W 093°54'4 7.8
2018-Aug-13 09:00N 29°51' W 093°56'3 6.8
2018-Aug-13 08:30N 29°48' W 093°57'4 8.6
2018-Aug-13 08:00N 29°45' W 093°53'510.3
2018-Aug-13 07:30N 29°41' W 093°50'713.6
2018-Aug-13 07:00N 29°35' W 093°47'814.7
2018-Aug-13 06:28N 29°29' W 093°40'510.3
2018-Aug-13 06:00N 29°25' W 093°41'1 1.5
2018-Aug-13 05:13N 29°24' W 093°42'0 0.0
2018-Aug-13 04:55N 29°24' W 093°42'0 0.0
2018-Aug-13 04:25N 29°24' W 093°42'0 0.0
2018-Aug-13 03:31N 29°24' W 093°42'0 0.1
2018-Aug-13 03:25N 29°24' W 093°42'0 0.0
2018-Aug-13 02:55N 29°24' W 093°42'0 0.0
2018-Aug-13 02:13N 29°24' W 093°42'0 0.1
2018-Aug-13 01:55N 29°24' W 093°42'0 0.0
2018-Aug-13 00:19N 29°24' W 093°42'0 0.0
2018-Aug-12 22:43N 29°24' W 093°42'0 0.0
2018-Aug-12 20:55N 29°24' W 093°42'0 0.0
2018-Aug-12 19:01N 29°24' W 093°42'0 0.3
2018-Aug-12 18:55N 29°24' W 093°42'0 0.5
2018-Aug-12 18:31N 29°24' W 093°42'2 4.3
2018-Aug-12 18:00N 29°22' W 093°41'612.0
2018-Aug-12 17:30N 29°16' W 093°39'  

Dump ship's entire track history